createdAt,value
2022-08-22T00:01:41.479Z,63.16
2022-08-22T00:03:00.233Z,50.70
2022-08-22T00:03:04.185Z,51.38
2022-08-22T00:04:48.731Z,63.60
2022-08-22T00:07:27.370Z,63.98
2022-08-22T00:10:11.591Z,64.05
2022-08-22T00:13:12.030Z,64.45
2022-08-22T00:16:09.041Z,64.59
2022-08-22T00:19:14.173Z,64.96
2022-08-22T00:22:15.300Z,65.14
2022-08-22T00:24:48.942Z,65.15
2022-08-22T00:27:20.941Z,65.51
2022-08-22T00:29:53.563Z,65.47
2022-08-22T00:32:34.619Z,65.71
2022-08-22T00:35:25.331Z,65.93
2022-08-22T00:38:14.262Z,66.31
2022-08-22T00:41:05.636Z,66.42
2022-08-22T00:43:53.395Z,66.27
2022-08-22T00:46:24.438Z,66.51
2022-08-22T00:49:30.122Z,66.57
2022-08-22T00:52:17.884Z,66.72
2022-08-22T00:55:09.392Z,66.65
2022-08-22T00:57:57.275Z,66.65
2022-08-22T01:00:35.250Z,66.69
2022-08-22T01:03:29.072Z,66.58
2022-08-22T01:06:10.471Z,66.67
2022-08-22T01:09:15.233Z,66.79
2022-08-22T01:12:06.944Z,67.05
2022-08-22T01:14:42.572Z,67.04
2022-08-22T01:17:35.273Z,67.00
2022-08-22T01:20:34.983Z,67.11
2022-08-22T01:23:40.439Z,67.22
2022-08-22T01:26:28.860Z,67.24
2022-08-22T01:29:34.496Z,67.49
2022-08-22T01:32:43.425Z,67.58
2022-08-22T01:35:24.564Z,67.54
2022-08-22T01:38:18.764Z,67.53
2022-08-22T01:41:13.383Z,67.30
2022-08-22T01:43:59.791Z,67.49
2022-08-22T01:46:31.211Z,67.49
2022-08-22T01:49:09.763Z,67.43
2022-08-22T01:51:51.725Z,67.08
2022-08-22T01:54:38.422Z,66.66
2022-08-22T01:57:08.154Z,66.65
2022-08-22T01:59:42.674Z,66.55
2022-08-22T02:02:27.739Z,66.34
2022-08-22T02:05:06.452Z,66.29
2022-08-22T02:08:02.083Z,66.38
2022-08-22T02:10:48.106Z,66.40
2022-08-22T02:13:17.337Z,66.51
2022-08-22T02:16:01.465Z,67.01
2022-08-22T02:18:43.593Z,67.00
2022-08-22T02:21:21.953Z,67.19
2022-08-22T02:24:33.423Z,67.47
2022-08-22T02:27:15.371Z,67.60
2022-08-22T02:29:50.165Z,67.85
2022-08-22T02:32:26.846Z,68.37
2022-08-22T02:35:01.387Z,68.38
2022-08-22T02:37:40.121Z,68.52
2022-08-22T02:40:47.983Z,68.44
2022-08-22T02:43:24.023Z,68.51
2022-08-22T02:46:11.750Z,69.24
2022-08-22T02:49:02.372Z,68.91
2022-08-22T02:51:31.973Z,69.02
2022-08-22T02:54:14.073Z,69.41
2022-08-22T02:56:52.626Z,69.30
2022-08-22T02:59:36.482Z,69.54
2022-08-22T03:02:24.835Z,69.69
2022-08-22T03:04:54.380Z,69.71
2022-08-22T03:07:20.775Z,70.00
2022-08-22T03:10:19.596Z,70.04
2022-08-22T03:12:48.962Z,70.06
2022-08-22T03:15:27.345Z,70.37
2022-08-22T03:18:16.554Z,70.53
2022-08-22T03:20:52.337Z,70.71
2022-08-22T03:23:25.242Z,70.75
2022-08-22T03:26:01.894Z,70.80
2022-08-22T03:28:52.640Z,70.86
2022-08-22T03:31:27.598Z,70.85
2022-08-22T03:34:20.237Z,70.86
2022-08-22T03:37:20.985Z,71.01
2022-08-22T03:40:00.393Z,71.27
2022-08-22T03:42:38.747Z,71.27
2022-08-22T03:45:42.985Z,71.51
2022-08-22T03:48:31.199Z,71.46
2022-08-22T03:51:09.300Z,71.72
2022-08-22T03:53:48.498Z,71.89
2022-08-22T03:56:54.022Z,72.00
2022-08-22T03:59:56.046Z,72.42
2022-08-22T04:02:43.065Z,72.50
2022-08-22T04:05:24.989Z,72.82
2022-08-22T04:08:36.506Z,72.99
2022-08-22T04:11:28.590Z,73.19
2022-08-22T04:14:24.226Z,73.27
2022-08-22T04:17:04.146Z,73.18
2022-08-22T04:19:42.409Z,73.40
2022-08-22T04:22:36.694Z,73.71
2022-08-22T04:25:17.192Z,73.77
2022-08-22T04:27:49.643Z,73.86
2022-08-22T04:30:54.718Z,73.99
2022-08-22T04:33:31.908Z,74.14
2022-08-22T04:36:13.516Z,74.17
2022-08-22T04:39:12.304Z,74.32
2022-08-22T04:41:48.167Z,74.58
2022-08-22T04:44:22.531Z,74.70
2022-08-22T04:46:56.166Z,74.77
2022-08-22T04:49:46.143Z,74.96
2022-08-22T04:52:42.178Z,74.88
2022-08-22T04:55:24.792Z,74.86
2022-08-22T04:58:06.415Z,75.03
2022-08-22T05:00:40.401Z,75.32
2022-08-22T05:03:16.116Z,75.12
2022-08-22T05:05:45.085Z,75.23
2022-08-22T05:08:17.299Z,75.31
2022-08-22T05:10:48.497Z,75.48
2022-08-22T05:13:25.050Z,75.47
2022-08-22T05:15:58.098Z,75.39
2022-08-22T05:18:29.943Z,75.52
2022-08-22T05:21:01.817Z,75.63
2022-08-22T05:23:36.074Z,75.69
2022-08-22T05:26:06.811Z,75.58
2022-08-22T05:28:37.784Z,75.67
2022-08-22T05:31:09.087Z,75.65
2022-08-22T05:33:50.503Z,75.70
2022-08-22T05:36:24.857Z,75.76
2022-08-22T05:38:56.303Z,75.79
2022-08-22T05:41:29.001Z,75.86
2022-08-22T05:43:58.629Z,75.74
2022-08-22T05:46:43.191Z,75.88
2022-08-22T05:49:19.927Z,75.81
2022-08-22T05:52:04.708Z,75.78
2022-08-22T05:54:48.467Z,76.02
2022-08-22T05:57:27.238Z,76.12
2022-08-22T06:00:03.930Z,76.04
2022-08-22T06:02:56.015Z,76.11
2022-08-22T06:05:34.970Z,76.16
2022-08-22T06:08:23.883Z,76.17
2022-08-22T06:10:59.324Z,75.94
2022-08-22T06:13:37.744Z,76.11
2022-08-22T06:16:21.365Z,76.08
2022-08-22T06:18:50.567Z,75.95
2022-08-22T06:21:39.310Z,75.90
2022-08-22T06:24:13.230Z,75.96
2022-08-22T06:26:48.722Z,75.82
2022-08-22T06:29:36.128Z,75.72
2022-08-22T06:32:10.334Z,75.78
2022-08-22T06:34:41.075Z,75.71
2022-08-22T06:37:12.285Z,75.60
2022-08-22T06:39:43.433Z,75.34
2022-08-22T06:42:19.899Z,75.51
2022-08-22T06:45:17.420Z,75.46
2022-08-22T06:47:53.677Z,75.43
2022-08-22T06:50:32.118Z,75.47
2022-08-22T06:53:01.150Z,75.21
2022-08-22T06:55:30.231Z,74.87
2022-08-22T06:58:01.438Z,74.76
2022-08-22T07:00:28.293Z,74.42
2022-08-22T07:03:14.347Z,73.75
2022-08-22T07:05:42.886Z,73.23
2022-08-22T07:08:14.982Z,71.93
2022-08-22T07:10:44.115Z,71.32
2022-08-22T07:13:19.133Z,70.21
2022-08-22T07:15:53.831Z,69.21
2022-08-22T07:18:25.945Z,67.88
2022-08-22T07:20:59.089Z,67.54
2022-08-22T07:23:47.796Z,67.43
2022-08-22T07:26:28.429Z,67.55
2022-08-22T07:29:11.393Z,68.11
2022-08-22T07:31:51.552Z,67.42
2022-08-22T07:34:42.836Z,64.77
2022-08-22T07:37:52.006Z,62.55
2022-08-22T07:40:25.131Z,60.33
2022-08-22T07:43:00.869Z,58.38
2022-08-22T07:45:37.674Z,56.42
2022-08-22T07:48:31.633Z,54.71
2022-08-22T07:51:13.580Z,53.39
2022-08-22T07:54:00.351Z,51.97
2022-08-22T07:56:53.559Z,50.47
2022-08-22T07:59:22.458Z,49.21
2022-08-22T08:01:53.884Z,48.02
2022-08-22T08:04:26.090Z,47.16
2022-08-22T08:06:58.082Z,46.02
2022-08-22T08:09:30.890Z,45.55
2022-08-22T08:11:59.303Z,44.53
2022-08-22T08:14:26.994Z,44.04
2022-08-22T08:17:13.030Z,44.07
2022-08-22T08:19:42.537Z,43.49
2022-08-22T08:22:15.653Z,43.03
2022-08-22T08:24:44.872Z,42.01
2022-08-22T08:27:34.602Z,41.44
2022-08-22T08:30:22.137Z,41.33
2022-08-22T08:32:57.526Z,40.16
2022-08-22T08:36:02.599Z,39.80
2022-08-22T08:38:40.226Z,39.57
2022-08-22T08:41:45.634Z,38.84
2022-08-22T08:44:49.550Z,37.83
2022-08-22T08:47:46.290Z,38.14
2022-08-22T08:50:33.368Z,38.08
2022-08-22T08:53:24.247Z,37.75
2022-08-22T08:56:17.811Z,37.93
2022-08-22T08:59:09.979Z,37.06
2022-08-22T09:02:13.625Z,37.33
2022-08-22T09:05:12.533Z,37.55
2022-08-22T09:08:17.184Z,38.25
2022-08-22T09:11:17.642Z,38.36
2022-08-22T09:14:17.139Z,38.06
2022-08-22T09:17:23.578Z,37.47
2022-08-22T09:23:38.852Z,37.42
2022-08-22T09:26:38.617Z,37.42
2022-08-22T09:29:09.571Z,37.63
2022-08-22T09:31:52.129Z,37.02
2022-08-22T09:34:56.224Z,36.47
2022-08-22T09:38:20.897Z,36.18
2022-08-22T09:40:15.553Z,36.87
2022-08-22T09:41:13.292Z,35.60
2022-08-22T09:44:27.903Z,35.85
2022-08-22T09:47:14.385Z,35.92
2022-08-22T09:49:43.067Z,35.35
2022-08-22T09:53:02.280Z,35.26
2022-08-22T09:55:47.639Z,34.55
2022-08-22T09:58:42.283Z,33.67
2022-08-22T10:01:36.355Z,33.62
2022-08-22T10:04:37.331Z,33.84
2022-08-22T10:07:25.183Z,33.32
2022-08-22T10:10:04.769Z,33.24
2022-08-22T10:12:58.612Z,33.83
2022-08-22T10:15:51.146Z,32.38
2022-08-22T10:18:53.718Z,32.00
2022-08-22T10:22:15.738Z,33.16
2022-08-22T10:25:00.027Z,33.12
2022-08-22T10:27:38.009Z,33.10
2022-08-22T10:30:16.306Z,32.75
2022-08-22T10:33:29.199Z,31.61
2022-08-22T10:36:20.370Z,32.33
2022-08-22T10:38:55.052Z,32.02
2022-08-22T10:41:36.716Z,32.21
2022-08-22T10:44:21.522Z,31.56
2022-08-22T10:47:06.643Z,31.97
2022-08-22T10:49:55.574Z,31.81
2022-08-22T10:52:32.614Z,31.84
2022-08-22T10:55:18.804Z,31.95
2022-08-22T10:58:10.741Z,31.49
2022-08-22T11:00:56.584Z,32.07
2022-08-22T11:03:25.933Z,31.65
2022-08-22T11:05:59.633Z,31.76
2022-08-22T11:08:37.109Z,31.84
2022-08-22T11:11:06.502Z,32.43
2022-08-22T11:13:51.700Z,32.55
2022-08-22T11:16:36.792Z,32.33
2022-08-22T11:19:20.784Z,32.39
2022-08-22T11:22:18.980Z,32.25
2022-08-22T11:25:14.099Z,32.48
2022-08-22T11:28:15.681Z,32.24
2022-08-22T11:31:03.617Z,32.60
2022-08-22T11:33:46.902Z,31.54
2022-08-22T11:36:31.045Z,31.30
2022-08-22T11:39:25.360Z,29.98
2022-08-22T11:42:07.268Z,30.79
2022-08-22T11:44:50.300Z,30.27
2022-08-22T11:47:27.162Z,30.99
2022-08-22T11:50:15.008Z,30.65
2022-08-22T11:53:14.429Z,31.06
2022-08-22T11:56:05.435Z,30.25
2022-08-22T11:58:41.846Z,30.80
2022-08-22T12:01:18.574Z,30.86
2022-08-22T12:04:09.977Z,31.38
2022-08-22T12:06:49.913Z,30.61
2022-08-22T12:09:50.522Z,30.39
2022-08-22T12:12:40.258Z,29.32
2022-08-22T12:15:30.482Z,29.76
2022-08-22T12:18:33.684Z,28.49
2022-08-22T12:21:06.473Z,28.88
2022-08-22T12:23:48.799Z,28.71
2022-08-22T12:26:27.837Z,28.41
2022-08-22T12:29:15.427Z,28.70
2022-08-22T12:31:59.407Z,28.12
2022-08-22T12:34:54.781Z,28.48
2022-08-22T12:37:52.972Z,28.96
2022-08-22T12:40:37.976Z,29.16
2022-08-22T12:43:32.826Z,29.08
2022-08-22T12:46:18.720Z,28.84
2022-08-22T12:49:00.498Z,29.13
2022-08-22T12:51:57.390Z,29.53
2022-08-22T12:54:52.982Z,29.94
2022-08-22T12:57:31.194Z,29.93
2022-08-22T13:00:38.057Z,29.96
2022-08-22T13:03:10.153Z,30.42
2022-08-22T13:05:40.624Z,30.55
2022-08-22T13:08:17.537Z,30.15
2022-08-22T13:10:58.247Z,30.34
2022-08-22T13:13:56.149Z,30.51
2022-08-22T13:16:48.818Z,30.41
2022-08-22T13:19:22.312Z,30.43
2022-08-22T13:21:59.643Z,30.28
2022-08-22T13:24:51.740Z,30.94
2022-08-22T13:27:29.858Z,30.96
2022-08-22T13:30:21.651Z,31.70
2022-08-22T13:32:49.953Z,31.91
2022-08-22T13:35:44.630Z,31.62
2022-08-22T13:38:34.674Z,32.41
2022-08-22T13:41:04.542Z,31.68
2022-08-22T13:43:37.040Z,31.64
2022-08-22T13:46:10.808Z,32.06
2022-08-22T13:48:56.662Z,32.58
2022-08-22T13:51:45.182Z,32.16
2022-08-22T13:54:15.993Z,32.17
2022-08-22T13:56:53.961Z,31.96
2022-08-22T13:59:52.444Z,32.40
2022-08-22T14:02:43.310Z,31.90
2022-08-22T14:05:16.877Z,31.83
2022-08-22T14:08:18.750Z,31.73
2022-08-22T14:11:01.433Z,31.82
2022-08-22T14:13:49.213Z,31.84
2022-08-22T14:16:32.184Z,31.68
2022-08-22T14:19:06.305Z,31.43
2022-08-22T14:21:42.484Z,31.08
2022-08-22T14:24:30.891Z,31.16
2022-08-22T14:27:05.669Z,31.55
2022-08-22T14:29:50.865Z,31.85
2022-08-22T14:32:22.805Z,31.47
2022-08-22T14:35:01.272Z,30.96
2022-08-22T14:37:39.026Z,31.13
2022-08-22T14:40:27.952Z,31.08
2022-08-22T14:43:05.108Z,30.68
2022-08-22T14:45:40.351Z,30.50
2022-08-22T14:48:31.343Z,30.21
2022-08-22T14:51:04.096Z,30.43
2022-08-22T14:53:34.532Z,30.40
2022-08-22T14:56:22.185Z,30.47
2022-08-22T14:59:01.058Z,30.42
2022-08-22T15:01:53.411Z,30.74
2022-08-22T15:04:35.684Z,31.05
2022-08-22T15:07:02.698Z,30.97
2022-08-22T15:09:33.932Z,30.68
2022-08-22T15:12:03.780Z,30.70
2022-08-22T15:14:52.150Z,30.40
2022-08-22T15:17:44.753Z,30.22
2022-08-22T15:20:38.214Z,29.80
2022-08-22T15:23:21.868Z,30.23
2022-08-22T15:26:06.926Z,30.17
2022-08-22T15:28:52.547Z,30.22
2022-08-22T15:31:20.375Z,30.24
2022-08-22T15:33:47.789Z,30.14
2022-08-22T15:36:24.444Z,30.33
2022-08-22T15:38:53.903Z,30.57
2022-08-22T15:41:26.190Z,30.28
2022-08-22T15:44:31.140Z,29.86
2022-08-22T15:47:11.810Z,30.45
2022-08-22T15:49:56.501Z,30.83
2022-08-22T15:52:29.512Z,30.65
2022-08-22T15:54:57.034Z,30.80
2022-08-22T15:57:31.742Z,30.39
2022-08-22T16:00:11.121Z,30.54
2022-08-22T16:02:53.120Z,30.85
2022-08-22T16:06:07.523Z,31.15
2022-08-22T16:08:36.877Z,31.32
2022-08-22T16:11:03.229Z,31.21
2022-08-22T16:13:30.064Z,31.09
2022-08-22T16:16:09.114Z,31.14
2022-08-22T16:18:42.712Z,31.18
2022-08-22T16:21:16.827Z,31.29
2022-08-22T16:23:46.256Z,31.32
2022-08-22T16:26:16.522Z,31.56
2022-08-22T16:29:19.063Z,31.35
2022-08-22T16:31:48.450Z,31.51
2022-08-22T16:34:17.846Z,31.40
2022-08-22T16:37:08.214Z,31.23
2022-08-22T16:40:08.127Z,31.24
2022-08-22T16:42:43.184Z,31.61
2022-08-22T16:45:18.792Z,31.68
2022-08-22T16:47:58.216Z,31.94
2022-08-22T16:50:31.397Z,31.85
2022-08-22T16:53:07.873Z,32.26
2022-08-22T16:55:35.951Z,32.43
2022-08-22T16:58:16.332Z,32.39
2022-08-22T17:00:48.761Z,32.47
2022-08-22T17:03:31.649Z,33.04
2022-08-22T17:06:15.786Z,33.14
2022-08-22T17:09:01.041Z,32.89
2022-08-22T17:11:48.868Z,32.99
2022-08-22T17:14:33.826Z,33.79
2022-08-22T17:17:29.451Z,33.68
2022-08-22T17:20:12.683Z,33.99
2022-08-22T17:22:47.549Z,34.09
2022-08-22T17:25:22.793Z,33.85
2022-08-22T17:28:13.167Z,34.03
2022-08-22T17:31:06.446Z,34.15
2022-08-22T17:33:54.068Z,34.61
2022-08-22T17:36:45.966Z,34.80
2022-08-22T17:39:41.868Z,35.10
2022-08-22T17:42:21.796Z,35.25
2022-08-22T17:45:03.487Z,35.37
2022-08-22T17:48:07.210Z,35.42
2022-08-22T17:50:51.268Z,36.07
2022-08-22T17:53:38.676Z,36.22
2022-08-22T17:56:26.237Z,36.67
2022-08-22T17:59:09.739Z,36.84
2022-08-22T18:01:55.961Z,37.10
2022-08-22T18:04:33.316Z,37.45
2022-08-22T18:07:14.731Z,37.51
2022-08-22T18:09:51.842Z,37.52
2022-08-22T18:12:34.375Z,38.34
2022-08-22T18:15:11.282Z,38.49
2022-08-22T18:17:47.031Z,38.75
2022-08-22T18:20:22.973Z,39.19
2022-08-22T18:22:54.793Z,39.08
2022-08-22T18:25:21.886Z,39.57
2022-08-22T18:28:14.915Z,39.63
2022-08-22T18:30:54.760Z,40.06
2022-08-22T18:33:40.378Z,40.30
2022-08-22T18:36:18.546Z,40.38
2022-08-22T18:38:55.673Z,40.68
2022-08-22T18:41:31.482Z,40.67
2022-08-22T18:44:00.155Z,41.15
2022-08-22T18:46:39.816Z,41.81
2022-08-22T18:49:24.082Z,41.88
2022-08-22T18:52:06.827Z,42.22
2022-08-22T18:55:02.513Z,42.48
2022-08-22T18:57:40.336Z,42.96
2022-08-22T19:00:23.647Z,43.17
2022-08-22T19:03:03.571Z,43.32
2022-08-22T19:05:42.040Z,43.60
2022-08-22T19:08:17.226Z,43.80
2022-08-22T19:11:03.465Z,44.31
2022-08-22T19:13:51.410Z,44.36
2022-08-22T19:16:43.655Z,45.07
2022-08-22T19:19:21.649Z,45.42
2022-08-22T19:22:22.950Z,45.70
2022-08-22T19:25:26.473Z,45.90
2022-08-22T19:28:04.849Z,46.29
2022-08-22T19:30:36.521Z,46.33
2022-08-22T19:33:07.194Z,46.41
2022-08-22T19:36:04.943Z,46.62
2022-08-22T19:38:51.635Z,47.09
2022-08-22T19:41:46.450Z,47.11
2022-08-22T19:44:42.503Z,47.58
2022-08-22T19:47:17.562Z,47.57
2022-08-22T19:49:55.221Z,48.24
2022-08-22T19:52:30.570Z,48.68
2022-08-22T19:55:33.663Z,49.18
2022-08-22T19:58:13.296Z,48.94
2022-08-22T20:00:56.616Z,48.97
2022-08-22T20:03:40.548Z,49.14
2022-08-22T20:06:43.471Z,49.08
2022-08-22T20:09:42.815Z,49.30
2022-08-22T20:12:24.706Z,50.03
2022-08-22T20:14:51.830Z,50.29
2022-08-22T20:17:24.169Z,50.47
2022-08-22T20:20:18.596Z,50.73
2022-08-22T20:22:52.940Z,50.69
2022-08-22T20:25:42.442Z,51.08
2022-08-22T20:28:51.666Z,51.28
2022-08-22T20:31:24.661Z,51.70
2022-08-22T20:34:15.591Z,51.80
2022-08-22T20:36:45.223Z,51.61
2022-08-22T20:39:18.943Z,51.64
2022-08-22T20:42:00.874Z,51.21
2022-08-22T20:44:35.273Z,51.29
2022-08-22T20:47:11.482Z,51.32
2022-08-22T20:49:45.489Z,51.33
2022-08-22T20:52:30.446Z,51.65
2022-08-22T20:55:12.800Z,51.93
2022-08-22T20:57:50.665Z,52.06
2022-08-22T21:00:28.283Z,52.03
2022-08-22T21:03:07.315Z,52.37
2022-08-22T21:05:46.440Z,52.78
2022-08-22T21:08:21.875Z,52.63
2022-08-22T21:11:21.729Z,53.01
2022-08-22T21:13:48.741Z,52.70
2022-08-22T21:16:20.682Z,52.89
2022-08-22T21:18:52.581Z,52.75
2022-08-22T21:21:27.262Z,52.68
2022-08-22T21:23:59.938Z,52.78
2022-08-22T21:26:29.371Z,53.02
2022-08-22T21:28:58.574Z,52.80
2022-08-22T21:31:30.220Z,52.93
2022-08-22T21:34:00.048Z,52.59
2022-08-22T21:36:30.161Z,52.83
2022-08-22T21:39:06.458Z,52.79
2022-08-22T21:41:47.235Z,52.86
2022-08-22T21:44:37.839Z,53.09
2022-08-22T21:47:31.576Z,53.05
2022-08-22T21:50:13.396Z,53.23
2022-08-22T21:52:41.264Z,53.08
2022-08-22T21:55:26.952Z,53.13
2022-08-22T21:58:07.105Z,53.20
2022-08-22T22:00:52.826Z,53.40
2022-08-22T22:03:22.973Z,53.53
2022-08-22T22:05:50.866Z,53.66
2022-08-22T22:08:19.019Z,53.74
2022-08-22T22:10:47.590Z,53.86
2022-08-22T22:13:14.514Z,53.42
2022-08-22T22:15:44.956Z,53.44
2022-08-22T22:18:14.115Z,53.39
2022-08-22T22:20:41.620Z,53.73
2022-08-22T22:23:09.095Z,53.78
2022-08-22T22:25:41.226Z,54.38
2022-08-22T22:28:31.973Z,54.46
2022-08-22T22:31:01.425Z,54.40
2022-08-22T22:33:32.468Z,54.50
2022-08-22T22:36:06.214Z,54.76
2022-08-22T22:38:33.461Z,55.25
2022-08-22T22:41:00.028Z,54.76
2022-08-22T22:43:27.789Z,54.87
2022-08-22T22:45:54.297Z,55.46
2022-08-22T22:48:24.411Z,55.36
2022-08-22T22:50:53.097Z,55.55
2022-08-22T22:53:21.203Z,55.52
2022-08-22T22:55:57.731Z,55.39
2022-08-22T22:58:27.940Z,55.44
2022-08-22T23:00:55.015Z,55.35
2022-08-22T23:03:21.638Z,55.66
2022-08-22T23:05:48.833Z,55.63
2022-08-22T23:08:15.818Z,55.67
2022-08-22T23:10:42.291Z,55.88
2022-08-22T23:13:09.170Z,55.86
2022-08-22T23:15:37.228Z,55.83
2022-08-22T23:18:03.787Z,56.01
2022-08-22T23:20:30.658Z,55.70
2022-08-22T23:22:57.567Z,55.80
2022-08-22T23:25:24.600Z,55.78
2022-08-22T23:27:52.594Z,55.73
2022-08-22T23:30:20.810Z,55.69
2022-08-22T23:32:47.584Z,55.75
2022-08-22T23:35:14.071Z,55.95
2022-08-22T23:37:40.533Z,55.77
2022-08-22T23:40:09.170Z,55.82
2022-08-22T23:42:36.086Z,55.92
2022-08-22T23:45:02.897Z,56.15
2022-08-22T23:47:29.296Z,56.04
2022-08-22T23:49:56.139Z,56.11
2022-08-22T23:52:25.827Z,55.98
2022-08-22T23:54:55.646Z,56.00
2022-08-22T23:57:26.560Z,56.49
2022-08-22T23:59:57.760Z,56.62
